Time;durP1;ratioP1;P1;durP2;ratioP2;P2;SDS_P1;SDS_P2;PMS_P1;PMS_P2;Temp;Humidity;BMP_temperature;BMP_pressure;BME280_temperature;BME280_humidity;BME280_pressure;Samples;Min_cycle;Max_cycle;Signal;HPM_P1;HPM_P2
2020/12/16 00:00:00;;;;;;;26.80;18.30;;;;;;;11.34;74.93;99812.53;4956881;28;20453;-89
2020/12/16 00:02:26;;;;;;;27.02;17.98;;;;;;;11.33;74.90;99816.09;4955748;28;20070;-89
2020/12/16 00:04:53;;;;;;;29.30;17.67;;;;;;;11.31;74.64;99818.00;4955985;28;20051;-88
2020/12/16 00:07:20;;;;;;;27.63;17.95;;;;;;;11.31;74.73;99814.50;4955839;29;20047;-88
2020/12/16 00:09:46;;;;;;;25.90;18.80;;;;;;;11.30;74.58;99812.81;4954778;28;20066;-89
2020/12/16 00:12:12;;;;;;;28.67;19.77;;;;;;;11.28;74.40;99815.53;4955436;28;20063;-88
2020/12/16 00:14:39;;;;;;;27.27;17.20;;;;;;;11.27;74.31;99818.25;4956706;28;20520;-88
2020/12/16 00:17:05;;;;;;;30.42;19.52;;;;;;;11.25;74.42;99822.78;4954983;28;20051;-88
2020/12/16 00:19:31;;;;;;;26.45;18.45;;;;;;;11.23;74.35;99824.66;4956151;28;20063;-88
2020/12/16 00:21:59;;;;;;;25.67;16.83;;;;;;;11.19;73.73;99824.00;4956069;28;20055;-88
2020/12/16 00:24:26;;;;;;;23.50;16.55;;;;;;;11.17;73.90;99828.47;4955731;29;20047;-89
2020/12/16 00:26:52;;;;;;;27.65;16.30;;;;;;;11.16;73.92;99832.06;4955533;29;20057;-89
2020/12/16 00:29:18;;;;;;;23.67;17.27;;;;;;;11.12;74.00;99828.78;4955994;28;20427;-89
2020/12/16 00:31:45;;;;;;;29.63;20.52;;;;;;;11.09;74.14;99828.94;4954940;28;20051;-89
2020/12/16 00:34:11;;;;;;;33.42;19.38;;;;;;;11.08;74.23;99830.75;4956204;28;20066;-89
2020/12/16 00:36:38;;;;;;;28.80;19.02;;;;;;;11.04;74.25;99823.97;4955994;28;20500;-87
2020/12/16 00:39:06;;;;;;;32.65;20.30;;;;;;;11.04;74.47;99821.31;4955494;28;20054;-89
2020/12/16 00:41:33;;;;;;;35.08;20.17;;;;;;;11.03;74.31;99835.41;4955179;28;20075;-88
2020/12/16 00:44:03;;;;;;;28.45;17.83;;;;;;;11.01;74.46;99829.38;4955152;29;20051;-90
2020/12/16 00:46:29;;;;;;;25.48;18.05;;;;;;;11.01;74.48;99834.66;4954745;28;20418;-88
2020/12/16 00:48:56;;;;;;;27.08;19.23;;;;;;;11.00;74.23;99838.25;4955094;28;20055;-89
2020/12/16 00:51:22;;;;;;;29.70;19.05;;;;;;;11.00;74.31;99829.47;4955310;28;20055;-88
2020/12/16 00:53:48;;;;;;;29.75;18.13;;;;;;;10.99;74.15;99830.41;4955198;28;20059;-90
2020/12/16 00:56:14;;;;;;;28.67;18.70;;;;;;;10.97;74.04;99833.13;4955863;28;20047;-89
2020/12/16 00:58:40;;;;;;;23.73;16.30;;;;;;;10.95;73.83;99821.81;4955218;28;20047;-89
2020/12/16 01:01:07;;;;;;;23.90;16.08;;;;;;;10.93;74.17;99823.72;4956079;28;20055;-88
2020/12/16 01:03:33;;;;;;;25.33;17.52;;;;;;;10.91;73.79;99822.94;4954968;28;20047;-88
2020/12/16 01:05:59;;;;;;;22.35;16.35;;;;;;;10.89;73.77;99820.41;4955633;29;20494;-89
2020/12/16 01:08:26;;;;;;;31.73;18.30;;;;;;;10.88;73.77;99828.41;4955612;28;20138;-89
2020/12/16 01:10:52;;;;;;;29.90;17.80;;;;;;;10.84;73.86;99826.88;4956334;29;20410;-89
2020/12/16 01:13:19;;;;;;;32.22;18.83;;;;;;;10.81;73.94;99827.91;4954386;28;20055;-88
2020/12/16 01:15:47;;;;;;;28.55;17.55;;;;;;;10.79;73.76;99840.28;4954387;28;20066;-90
2020/12/16 01:18:15;;;;;;;28.45;18.67;;;;;;;10.76;73.86;99836.06;4954936;28;20048;-90
2020/12/16 01:20:43;;;;;;;32.95;18.17;;;;;;;10.73;73.85;99830.94;4954881;28;20051;-90
2020/12/16 01:23:09;;;;;;;27.17;17.85;;;;;;;10.71;74.00;99835.47;4956115;28;20055;-89
2020/12/16 01:25:36;;;;;;;28.33;19.23;;;;;;;10.70;74.11;99844.31;4956291;28;20142;-89
2020/12/16 01:28:02;;;;;;;32.28;20.08;;;;;;;10.67;74.12;99833.94;4955446;28;20052;-88
2020/12/16 01:30:28;;;;;;;24.83;16.85;;;;;;;10.65;73.98;99825.31;4958178;28;20059;-88
2020/12/16 01:32:56;;;;;;;29.48;18.42;;;;;;;10.63;73.40;99829.78;4957708;29;20055;-89
2020/12/16 01:35:24;;;;;;;30.13;17.75;;;;;;;10.60;73.56;99832.59;4958754;28;20061;-89
2020/12/16 01:37:52;;;;;;;24.90;16.98;;;;;;;10.57;73.49;99822.25;4957411;28;20043;-89
2020/12/16 01:40:19;;;;;;;29.13;17.35;;;;;;;10.53;73.28;99832.94;4957710;28;20062;-90
2020/12/16 01:42:46;;;;;;;24.02;15.43;;;;;;;10.48;73.21;99837.63;4959042;28;20063;-89
2020/12/16 01:45:15;;;;;;;27.30;15.48;;;;;;;10.42;73.26;99835.28;4957966;28;20069;-88
2020/12/16 01:47:41;;;;;;;23.35;15.35;;;;;;;10.39;73.39;99832.84;4958108;29;20413;-90
2020/12/16 01:50:10;;;;;;;29.05;16.38;;;;;;;10.33;73.19;99823.50;4959021;28;20486;-88
2020/12/16 01:52:39;;;;;;;26.90;16.20;;;;;;;10.28;72.98;99821.09;4958029;28;20058;-88
2020/12/16 01:55:08;;;;;;;22.63;14.32;;;;;;;10.24;73.17;99831.88;4959314;28;20059;-88
2020/12/16 01:57:40;;;;;;;23.60;14.90;;;;;;;10.16;72.76;99832.28;4957855;28;20510;-88
2020/12/16 02:00:10;;;;;;;25.80;15.10;;;;;;;10.11;73.07;99844.84;4957661;28;20063;-90
2020/12/16 02:02:51;;;;;;;28.73;17.05;;;;;;;10.03;73.29;99848.72;4958731;29;20062;-90
2020/12/16 02:05:22;;;;;;;27.00;16.08;;;;;;;10.01;73.37;99841.84;4957942;29;20055;-88
2020/12/16 02:07:53;;;;;;;25.42;15.13;;;;;;;9.96;73.43;99844.72;4957925;28;20051;-89
2020/12/16 02:10:20;;;;;;;24.23;15.68;;;;;;;9.94;73.63;99843.13;4957314;28;20413;-88
2020/12/16 02:12:46;;;;;;;29.50;16.73;;;;;;;9.90;73.90;99848.53;4957474;28;20059;-88
2020/12/16 02:15:12;;;;;;;26.50;16.00;;;;;;;9.88;73.80;99852.19;4956824;29;20147;-89
2020/12/16 02:17:38;;;;;;;29.10;15.73;;;;;;;9.85;74.26;99850.56;4957302;28;20054;-88
2020/12/16 02:20:07;;;;;;;27.67;15.48;;;;;;;9.82;73.93;99855.97;4957687;28;20051;-89
2020/12/16 02:22:36;;;;;;;21.42;13.20;;;;;;;9.83;73.80;99859.47;4957810;29;20062;-88
2020/12/16 02:25:06;;;;;;;29.25;15.27;;;;;;;9.80;73.94;99864.88;4958627;28;20047;-89
2020/12/16 02:27:37;;;;;;;27.27;16.92;;;;;;;9.76;74.28;99857.13;4958551;28;20456;-89
2020/12/16 02:30:06;;;;;;;27.88;15.23;;;;;;;9.74;73.99;99860.78;4957292;28;20062;-88
2020/12/16 02:32:38;;;;;;;26.33;14.52;;;;;;;9.71;73.90;99859.16;4958321;28;20426;-89
2020/12/16 02:35:07;;;;;;;23.60;13.68;;;;;;;9.69;73.78;99860.16;4956703;29;20055;-88
2020/12/16 02:37:33;;;;;;;24.92;14.63;;;;;;;9.67;73.80;99860.25;4956770;28;20074;-88
2020/12/16 02:40:00;;;;;;;28.23;15.43;;;;;;;9.66;74.24;99861.19;4955576;28;20093;-88
2020/12/16 02:42:28;;;;;;;30.80;16.73;;;;;;;9.63;74.17;99858.72;4956753;29;20058;-90
2020/12/16 02:44:59;;;;;;;30.30;15.57;;;;;;;9.62;74.06;99864.91;4957527;28;20051;-88
2020/12/16 02:47:25;;;;;;;29.88;15.70;;;;;;;9.59;74.22;99859.78;4957170;28;20058;-88
2020/12/16 02:49:52;;;;;;;29.33;16.38;;;;;;;9.57;74.18;99857.22;4956185;28;20062;-88
2020/12/16 02:52:18;;;;;;;30.52;18.23;;;;;;;9.56;74.21;99854.69;4958818;28;20051;-88
2020/12/16 02:54:44;;;;;;;32.35;17.13;;;;;;;9.54;74.77;99861.81;4958247;28;20073;-89
2020/12/16 02:57:10;;;;;;;33.80;17.33;;;;;;;9.52;74.60;99862.75;4957486;28;20495;-88
2020/12/16 02:59:37;;;;;;;35.53;18.40;;;;;;;9.49;74.64;99859.41;4957874;28;20059;-88
2020/12/16 03:02:03;;;;;;;31.98;18.33;;;;;;;9.49;74.67;99864.66;4956439;28;20059;-89
2020/12/16 03:04:30;;;;;;;36.10;19.00;;;;;;;9.48;75.05;99874.34;4957848;28;20568;-88
2020/12/16 03:06:57;;;;;;;33.03;18.92;;;;;;;9.47;75.13;99877.03;4957582;28;20054;-88
2020/12/16 03:09:26;;;;;;;36.13;19.15;;;;;;;9.46;75.25;99876.19;4957279;28;20059;-88
2020/12/16 03:11:54;;;;;;;35.03;18.48;;;;;;;9.48;75.24;99871.72;4957005;29;20055;-88
2020/12/16 03:14:21;;;;;;;34.40;18.40;;;;;;;9.48;75.17;99876.97;4958261;28;20050;-89
2020/12/16 03:16:48;;;;;;;37.22;21.30;;;;;;;9.49;75.18;99870.78;4956216;29;20050;-88
2020/12/16 03:19:15;;;;;;;40.85;20.85;;;;;;;9.52;75.33;99872.41;4955939;28;20047;-88
2020/12/16 03:21:46;;;;;;;36.60;19.65;;;;;;;9.52;75.24;99877.66;4956296;28;20055;-89
2020/12/16 03:24:18;;;;;;;36.75;20.33;;;;;;;9.52;75.16;99873.25;4956641;28;20576;-89
2020/12/16 03:26:44;;;;;;;37.50;20.45;;;;;;;9.54;75.16;99877.56;4957584;28;20047;-88
2020/12/16 03:29:10;;;;;;;37.95;21.23;;;;;;;9.54;75.08;99864.44;4955910;28;20067;-89
2020/12/16 03:31:38;;;;;;;35.55;20.25;;;;;;;9.52;75.10;99865.38;4956047;28;20051;-88
2020/12/16 03:34:05;;;;;;;35.53;20.23;;;;;;;9.52;74.90;99870.63;4956023;28;20051;-89
2020/12/16 03:36:34;;;;;;;34.17;20.73;;;;;;;9.52;75.01;99869.75;4955782;29;20055;-88
2020/12/16 03:39:01;;;;;;;32.90;19.95;;;;;;;9.52;74.93;99875.88;4956879;28;20054;-87
2020/12/16 03:41:27;;;;;;;35.58;20.80;;;;;;;9.51;74.86;99874.19;4956543;28;20059;-89
2020/12/16 03:43:54;;;;;;;37.45;21.63;;;;;;;9.51;74.82;99873.31;4956829;28;20061;-88
2020/12/16 03:46:20;;;;;;;40.25;23.42;;;;;;;9.50;75.10;99875.09;4955349;28;20059;-88
2020/12/16 03:48:46;;;;;;;43.83;23.90;;;;;;;9.49;75.41;99881.28;4956477;28;20086;-89
2020/12/16 03:51:15;;;;;;;55.28;25.95;;;;;;;9.49;76.04;99889.16;4954721;28;20059;-88
2020/12/16 03:53:42;;;;;;;56.30;24.23;;;;;;;9.51;75.98;99889.97;4953965;28;20403;-88
2020/12/16 03:56:11;;;;;;;139.70;28.80;;;;;;;9.52;76.14;99891.66;4957803;28;20062;-89
2020/12/16 03:58:48;;;;;;;99.90;27.00;;;;;;;9.55;76.49;99884.53;4955147;28;20051;-89
2020/12/16 04:01:16;;;;;;;215.70;29.15;;;;;;;9.59;76.69;99881.69;4956048;28;20058;-89
2020/12/16 04:03:43;;;;;;;141.07;24.38;;;;;;;9.64;76.55;99881.41;4957058;28;20062;-89
2020/12/16 04:06:10;;;;;;;224.32;26.13;;;;;;;9.68;76.61;99879.50;4955938;28;20490;-88
2020/12/16 04:08:38;;;;;;;206.07;25.08;;;;;;;9.72;76.72;99889.78;4955855;28;20070;-88
2020/12/16 04:11:10;;;;;;;206.40;24.08;;;;;;;9.74;76.79;99881.81;4955585;28;20134;-88
2020/12/16 04:13:36;;;;;;;287.17;26.73;;;;;;;9.82;76.54;99899.81;4956291;29;20059;-89
2020/12/16 04:16:04;;;;;;;265.55;23.60;;;;;;;9.85;76.59;99899.66;4955673;28;20051;-88
2020/12/16 04:18:31;;;;;;;269.88;24.10;;;;;;;9.89;76.54;99899.44;4956436;28;20051;-88
2020/12/16 04:20:57;;;;;;;166.00;22.40;;;;;;;9.93;76.48;99904.50;4957339;28;20051;-89
2020/12/16 04:23:23;;;;;;;347.50;24.65;;;;;;;9.96;76.29;99905.22;4954816;29;20062;-89
2020/12/16 04:25:49;;;;;;;188.02;21.50;;;;;;;9.98;76.21;99908.59;4956366;28;20058;-89
2020/12/16 04:28:15;;;;;;;242.32;22.10;;;;;;;10.00;76.15;99909.38;4955536;28;20425;-88
2020/12/16 04:30:42;;;;;;;186.60;23.10;;;;;;;10.03;76.13;99905.75;4956155;28;20057;-90
2020/12/16 04:33:08;;;;;;;303.88;27.85;;;;;;;10.07;76.04;99906.44;4956328;28;20139;-90
2020/12/16 04:35:34;;;;;;;319.98;27.23;;;;;;;10.08;76.00;99897.59;4956022;28;20055;-89
2020/12/16 04:38:00;;;;;;;219.90;23.00;;;;;;;10.11;76.01;99897.44;4955900;29;20058;-89
2020/12/16 04:40:26;;;;;;;317.40;27.80;;;;;;;10.13;76.07;99895.59;4955084;28;20051;-89
2020/12/16 04:43:01;;;;;;;100.55;20.73;;;;;;;10.12;75.85;99894.72;4956491;28;20544;-89
2020/12/16 04:45:28;;;;;;;165.63;23.08;;;;;;;10.16;75.92;99877.88;4955276;28;20446;-89
2020/12/16 04:47:58;;;;;;;63.00;20.60;;;;;;;10.17;76.07;99887.44;4956482;28;20047;-89
2020/12/16 04:50:25;;;;;;;109.97;21.48;;;;;;;10.20;75.95;99889.06;4954934;28;20065;-89
2020/12/16 04:52:52;;;;;;;148.00;23.40;;;;;;;10.21;76.01;99895.19;4955131;28;20048;-89
2020/12/16 04:55:19;;;;;;;140.68;20.67;;;;;;;10.23;75.76;99893.31;4956270;28;20059;-88
2020/12/16 04:57:51;;;;;;;275.40;24.00;;;;;;;10.24;75.66;99895.03;4954937;28;20051;-89
2020/12/16 05:00:19;;;;;;;158.73;20.60;;;;;;;10.25;75.57;99900.19;4956000;28;20059;-90
2020/12/16 05:02:56;;;;;;;105.97;20.25;;;;;;;10.25;75.55;99894.91;4955220;28;20074;-89
2020/12/16 05:05:23;;;;;;;256.63;24.40;;;;;;;10.28;75.69;99901.81;4958531;28;20058;-90
2020/12/16 05:07:50;;;;;;;241.70;24.65;;;;;;;10.28;75.54;99886.88;4958796;28;20063;-90
2020/12/16 05:10:30;;;;;;;256.75;23.35;;;;;;;10.26;75.44;99888.75;4958592;28;20059;-89
2020/12/16 05:13:04;;;;;;;168.88;20.55;;;;;;;10.28;74.97;99893.94;4958672;29;20498;-90
2020/12/16 05:15:34;;;;;;;212.05;24.55;;;;;;;10.29;75.04;99896.44;4959888;28;20059;-89
2020/12/16 05:18:11;;;;;;;115.93;16.83;;;;;;;10.25;74.72;99897.56;4959483;28;20047;-90
2020/12/16 05:20:40;;;;;;;104.63;18.25;;;;;;;10.25;74.58;99896.72;4958972;28;20062;-89
2020/12/16 05:23:07;;;;;;;198.18;23.15;;;;;;;10.24;74.41;99902.91;4958308;28;20055;-89
2020/12/16 05:25:35;;;;;;;127.32;21.30;;;;;;;10.19;74.32;99900.53;4958900;28;20106;-89
2020/12/16 05:28:02;;;;;;;156.98;20.92;;;;;;;10.17;74.15;99899.75;4959488;28;20059;-89
2020/12/16 05:30:30;;;;;;;128.73;19.95;;;;;;;10.12;74.07;99897.38;4959583;28;20062;-90
2020/12/16 05:33:01;;;;;;;128.65;19.45;;;;;;;10.06;73.56;99894.22;4957983;29;20134;-89
2020/12/16 05:35:36;;;;;;;104.38;18.10;;;;;;;10.00;73.52;99893.59;4958653;29;20468;-90
2020/12/16 05:38:04;;;;;;;103.55;19.15;;;;;;;10.00;73.60;99895.38;4959886;28;20109;-90
2020/12/16 05:40:31;;;;;;;108.32;19.42;;;;;;;9.94;73.56;99895.72;4957944;28;20055;-88
2020/12/16 05:42:58;;;;;;;118.97;20.02;;;;;;;9.87;73.02;99890.75;4958321;28;20142;-89
2020/12/16 05:45:27;;;;;;;80.50;18.13;;;;;;;9.82;73.50;99889.28;4959455;28;20067;-89
2020/12/16 05:48:03;;;;;;;35.38;19.75;;;;;;;9.73;73.28;99895.88;4957944;28;20075;-89
2020/12/16 05:50:58;;;;;;;28.50;17.55;;;;;;;9.64;73.59;99891.94;4972556;23;20047;-89
2020/12/16 05:53:26;;;;;;;41.95;18.52;;;;;;;9.63;73.28;99892.88;4955985;28;20043;-89
2020/12/16 05:56:01;;;;;;;36.95;18.60;;;;;;;9.59;73.40;99896.59;4957807;28;20086;-88
2020/12/16 05:58:29;;;;;;;30.50;19.40;;;;;;;9.53;73.41;99892.47;4956704;28;20051;-89
2020/12/16 06:00:59;;;;;;;30.15;18.77;;;;;;;9.47;73.46;99892.81;4957593;28;20051;-89
2020/12/16 06:03:28;;;;;;;28.30;17.67;;;;;;;9.43;73.67;99894.75;4956418;28;20138;-89
2020/12/16 06:06:12;;;;;;;28.13;17.17;;;;;;;9.35;73.93;99899.53;4956547;28;20455;-89
2020/12/16 06:08:40;;;;;;;27.55;17.65;;;;;;;9.36;73.81;99898.59;4956820;28;20047;-89
2020/12/16 06:11:09;;;;;;;31.13;18.73;;;;;;;9.34;74.13;99908.31;4957564;28;20138;-88
2020/12/16 06:13:37;;;;;;;29.23;18.42;;;;;;;9.31;73.88;99913.75;4957375;28;20138;-89
2020/12/16 06:16:04;;;;;;;30.42;19.13;;;;;;;9.28;73.99;99903.38;4956355;28;20051;-89
2020/12/16 06:18:39;;;;;;;32.38;18.90;;;;;;;9.24;74.08;99911.41;4956046;28;20055;-89
2020/12/16 06:21:12;;;;;;;32.22;18.00;;;;;;;9.20;74.19;99909.84;4957563;28;20138;-89
2020/12/16 06:23:43;;;;;;;32.17;19.65;;;;;;;9.22;74.27;99912.41;4955770;28;20134;-89
2020/12/16 06:26:17;;;;;;;36.33;20.83;;;;;;;9.17;74.09;99911.78;4956355;28;20081;-89
2020/12/16 06:28:45;;;;;;;32.88;18.30;;;;;;;9.17;74.19;99910.00;4956426;28;20063;-89
2020/12/16 06:31:27;;;;;;;25.83;16.98;;;;;;;9.12;74.59;99909.38;4955825;28;20058;-86
2020/12/16 06:34:02;;;;;;;31.10;18.27;;;;;;;9.10;74.41;99911.22;4956913;28;20051;-89
2020/12/16 06:36:34;;;;;;;29.27;17.20;;;;;;;9.11;74.31;99920.81;4956067;29;20106;-88
2020/12/16 06:39:02;;;;;;;33.22;19.08;;;;;;;9.08;74.09;99908.66;4955615;28;20055;-89
2020/12/16 06:41:30;;;;;;;30.10;17.48;;;;;;;9.07;74.35;99919.25;4956859;28;20055;-89
2020/12/16 06:44:07;;;;;;;32.72;17.15;;;;;;;9.06;74.51;99920.19;4956866;28;20047;-88
2020/12/16 06:46:33;;;;;;;29.30;18.30;;;;;;;9.04;74.41;99920.25;4955743;28;20051;-88
2020/12/16 06:49:01;;;;;;;28.15;16.85;;;;;;;9.03;74.50;99922.94;4955438;29;21712;-88
2020/12/16 06:51:35;;;;;;;28.08;17.13;;;;;;;9.01;74.53;99916.94;4955785;29;20055;-88
2020/12/16 06:54:06;;;;;;;27.00;16.63;;;;;;;8.98;74.49;99910.88;4955544;28;20387;-88
2020/12/16 06:56:39;;;;;;;27.33;15.95;;;;;;;8.97;73.94;99900.47;4956642;28;20126;-88
2020/12/16 06:59:06;;;;;;;31.33;17.42;;;;;;;8.96;74.00;99914.50;4956504;28;20051;-88
2020/12/16 07:01:33;;;;;;;29.75;17.33;;;;;;;8.92;74.31;99916.44;4955197;28;20067;-88
2020/12/16 07:04:00;;;;;;;28.85;16.98;;;;;;;8.90;74.31;99922.69;4955238;29;20047;-88
2020/12/16 07:06:29;;;;;;;28.27;16.80;;;;;;;8.86;74.33;99924.63;4956340;28;20142;-88
2020/12/16 07:09:21;;;;;;;28.42;16.98;;;;;;;8.82;74.56;99925.69;4956311;28;20043;-88
2020/12/16 07:11:52;;;;;;;29.08;17.60;;;;;;;8.82;74.52;99930.94;4955174;28;20502;-88
2020/12/16 07:14:24;;;;;;;28.38;16.67;;;;;;;8.81;74.58;99931.84;4955054;29;20051;-88
2020/12/16 07:16:51;;;;;;;29.50;16.80;;;;;;;8.80;74.50;99936.25;4955166;29;20055;-88
2020/12/16 07:19:27;;;;;;;32.03;17.17;;;;;;;8.77;74.76;99935.53;4955123;28;20051;-88
2020/12/16 07:21:57;;;;;;;31.40;17.92;;;;;;;8.78;74.70;99935.47;4956265;28;20074;-88
2020/12/16 07:24:24;;;;;;;29.63;16.88;;;;;;;8.78;74.83;99930.22;4954827;28;20047;-88
2020/12/16 07:26:53;;;;;;;32.28;17.73;;;;;;;8.77;74.63;99932.91;4954597;28;20046;-88
2020/12/16 07:29:33;;;;;;;31.17;16.10;;;;;;;8.72;74.97;99928.72;4956001;28;20059;-88
2020/12/16 07:32:12;;;;;;;31.17;17.27;;;;;;;8.73;74.61;99934.81;4954739;29;20058;-89
2020/12/16 07:34:45;;;;;;;28.77;15.95;;;;;;;8.72;74.78;99936.59;4954864;29;20077;-88
2020/12/16 07:37:13;;;;;;;28.67;15.85;;;;;;;8.74;74.69;99936.53;4955918;28;20058;-88
2020/12/16 07:39:55;;;;;;;24.77;15.45;;;;;;;8.71;74.80;99931.44;4955686;28;20490;-87
2020/12/16 07:42:26;;;;;;;30.25;16.10;;;;;;;8.72;74.86;99941.84;4954596;28;20051;-88
2020/12/16 07:44:54;;;;;;;28.50;16.75;;;;;;;8.72;74.79;99939.22;4955758;28;20051;-88
2020/12/16 07:47:20;;;;;;;25.55;16.85;;;;;;;8.72;75.10;99938.38;4955704;28;20043;-88
2020/12/16 07:49:47;;;;;;;24.25;15.35;;;;;;;8.72;75.03;99941.84;4954289;28;20058;-88
2020/12/16 07:52:13;;;;;;;33.05;17.58;;;;;;;8.72;74.95;99948.88;4955562;28;20058;-88
2020/12/16 07:54:40;;;;;;;30.55;17.83;;;;;;;8.72;75.07;99944.47;4955748;28;20066;-88
2020/12/16 07:57:06;;;;;;;28.17;16.58;;;;;;;8.75;75.15;99950.50;4954391;29;20047;-88
2020/12/16 07:59:35;;;;;;;34.20;17.63;;;;;;;8.73;75.24;99946.19;4955364;28;20051;-88
2020/12/16 08:02:13;;;;;;;30.08;16.92;;;;;;;8.72;75.04;99951.50;4954186;29;20082;-88
2020/12/16 08:04:42;;;;;;;30.00;18.10;;;;;;;8.77;75.17;99946.03;4955627;28;20089;-88
2020/12/16 08:07:19;;;;;;;30.40;17.10;;;;;;;8.78;75.34;99948.59;4955550;28;20075;-88
2020/12/16 08:10:03;;;;;;;27.13;16.10;;;;;;;8.76;75.29;99950.44;4954399;28;20062;-88
2020/12/16 08:12:31;;;;;;;30.10;16.35;;;;;;;8.79;75.24;99941.56;4955252;28;20080;-88
2020/12/16 08:15:17;;;;;;;33.60;18.05;;;;;;;8.77;75.37;99940.78;4954216;29;20066;-87
2020/12/16 08:17:46;;;;;;;31.13;17.77;;;;;;;8.81;75.14;99948.44;4953700;28;20044;-88
2020/12/16 08:20:21;;;;;;;30.25;18.42;;;;;;;8.82;75.19;99949.31;4953637;29;20503;-88
2020/12/16 08:22:50;;;;;;;30.38;18.70;;;;;;;8.83;75.25;99948.38;4953006;28;20089;-88
2020/12/16 08:25:18;;;;;;;34.53;18.08;;;;;;;8.85;75.44;99957.88;4953542;29;20502;-88
2020/12/16 08:27:49;;;;;;;30.40;18.02;;;;;;;8.86;75.35;99951.69;4953470;29;20043;-88
2020/12/16 08:30:20;;;;;;;29.85;17.45;;;;;;;8.88;75.56;99958.66;4953824;29;20043;-88
2020/12/16 08:33:09;;;;;;;31.17;18.02;;;;;;;8.86;75.67;99951.69;4953061;29;20054;-88
2020/12/16 08:35:48;;;;;;;32.40;17.35;;;;;;;8.92;75.67;99955.81;4953838;29;20414;-88
2020/12/16 08:38:24;;;;;;;34.35;17.92;;;;;;;8.93;75.54;99954.06;4955062;28;20054;-88
2020/12/16 08:40:51;;;;;;;31.83;18.67;;;;;;;8.98;75.68;99965.19;4957320;29;20055;-88
2020/12/16 08:43:24;;;;;;;29.67;16.77;;;;;;;8.98;75.45;99960.78;4956736;28;20051;-88
2020/12/16 08:46:04;;;;;;;27.95;17.25;;;;;;;8.99;75.82;99959.88;4958422;28;20051;-88
2020/12/16 08:48:42;;;;;;;29.98;17.70;;;;;;;9.03;75.78;99951.81;4958280;28;20057;-88
2020/12/16 08:51:10;;;;;;;34.65;18.35;;;;;;;9.08;75.76;99958.56;4957147;28;20058;-88
2020/12/16 08:53:59;;;;;;;27.80;17.48;;;;;;;9.09;75.63;99956.81;4957978;28;20055;-88
2020/12/16 08:56:40;;;;;;;26.58;16.10;;;;;;;9.12;75.62;99959.25;4957524;29;20047;-88
2020/12/16 08:59:07;;;;;;;29.15;17.42;;;;;;;9.18;75.90;99966.00;4958370;28;20414;-88
2020/12/16 09:01:35;;;;;;;29.10;17.35;;;;;;;9.20;76.12;99965.00;4957622;29;20066;-87
2020/12/16 09:04:02;;;;;;;28.00;17.15;;;;;;;9.25;75.93;99970.03;4957489;29;20446;-88
2020/12/16 09:06:28;;;;;;;31.10;18.13;;;;;;;9.27;76.28;99978.69;4958680;28;20618;-88
2020/12/16 09:08:54;;;;;;;33.00;17.88;;;;;;;9.31;76.21;99975.00;4958672;28;20047;-88
2020/12/16 09:11:21;;;;;;;28.50;17.85;;;;;;;9.36;76.53;99975.66;4957630;29;20055;-87
2020/12/16 09:13:49;;;;;;;29.40;18.15;;;;;;;9.41;76.65;99975.41;4957160;29;20051;-88
2020/12/16 09:16:23;;;;;;;30.85;17.95;;;;;;;9.47;76.52;99982.16;4957508;28;20058;-88
2020/12/16 09:18:50;;;;;;;29.75;17.92;;;;;;;9.55;76.96;99982.63;4957236;29;20058;-89
2020/12/16 09:21:29;;;;;;;31.52;18.50;;;;;;;9.60;76.71;99988.50;4957399;28;20055;-88
2020/12/16 09:23:56;;;;;;;30.77;17.08;;;;;;;9.72;77.22;99976.50;4958310;28;20498;-88
2020/12/16 09:26:43;;;;;;;31.33;17.52;;;;;;;9.78;76.71;99978.84;4957141;28;20517;-88
2020/12/16 09:29:29;;;;;;;28.88;16.23;;;;;;;9.91;76.69;99986.13;4957205;29;20058;-89
2020/12/16 09:32:16;;;;;;;30.45;15.90;;;;;;;9.98;76.51;99976.97;4957112;28;20055;-90
2020/12/16 09:34:45;;;;;;;26.98;15.07;;;;;;;10.11;76.62;99978.97;4957120;29;20494;-89
2020/12/16 09:37:18;;;;;;;27.75;16.08;;;;;;;10.17;76.61;99974.25;4957062;29;20047;-89
2020/12/16 09:39:46;;;;;;;24.02;14.50;;;;;;;10.27;76.71;99973.78;4957844;28;20059;-89
2020/12/16 09:42:15;;;;;;;26.08;15.10;;;;;;;10.35;76.65;99973.38;4956625;29;20490;-90
2020/12/16 09:44:42;;;;;;;22.85;14.73;;;;;;;10.42;76.58;99980.00;4957045;28;20083;-89
2020/12/16 09:47:14;;;;;;;22.65;15.13;;;;;;;10.48;75.92;99978.88;4957028;28;20051;-89
2020/12/16 09:49:42;;;;;;;23.92;14.07;;;;;;;10.56;76.35;99974.06;4956311;28;20058;-89
2020/12/16 09:52:31;;;;;;;23.42;14.27;;;;;;;10.59;75.73;99976.53;4956725;29;20066;-90
2020/12/16 09:55:10;;;;;;;20.98;13.27;;;;;;;10.68;76.11;99973.41;4956686;29;20051;-90
2020/12/16 09:57:37;;;;;;;19.80;13.25;;;;;;;10.74;76.18;99977.47;4956571;29;20058;-89
2020/12/16 10:00:04;;;;;;;25.13;13.95;;;;;;;10.78;76.19;99968.50;4956591;29;20062;-89
2020/12/16 10:02:30;;;;;;;20.85;12.23;;;;;;;10.85;75.80;99981.31;4956158;29;20058;-89
2020/12/16 10:04:56;;;;;;;21.33;13.80;;;;;;;10.89;75.98;99973.16;4956674;28;20525;-89
2020/12/16 10:07:22;;;;;;;19.80;12.85;;;;;;;10.94;75.78;99975.53;4956490;29;20487;-89
2020/12/16 10:09:57;;;;;;;18.77;11.85;;;;;;;10.99;75.86;99970.84;4956957;28;20062;-89
2020/12/16 10:12:24;;;;;;;18.27;11.65;;;;;;;11.06;75.85;99976.63;4956189;28;20502;-90
2020/12/16 10:14:51;;;;;;;20.15;12.80;;;;;;;11.10;75.71;99970.25;4956749;28;20130;-89
2020/12/16 10:17:27;;;;;;;16.60;11.13;;;;;;;11.13;75.00;99974.50;4956356;28;20051;-89
2020/12/16 10:19:53;;;;;;;21.55;12.35;;;;;;;11.19;75.51;99975.03;4957312;28;20502;-89
2020/12/16 10:22:19;;;;;;;20.27;12.85;;;;;;;11.23;75.49;99972.22;4957087;28;20051;-89
2020/12/16 10:24:46;;;;;;;17.58;11.75;;;;;;;11.26;75.37;99970.25;4956388;29;20057;-90
2020/12/16 10:27:12;;;;;;;19.38;11.95;;;;;;;11.30;75.38;99955.97;4956217;29;20414;-89
2020/12/16 10:29:38;;;;;;;20.88;11.95;;;;;;;11.33;75.08;99968.13;4956019;29;20055;-89
2020/12/16 10:32:05;;;;;;;15.50;10.63;;;;;;;11.36;74.98;99956.56;4955668;29;20055;-90
2020/12/16 10:34:31;;;;;;;16.45;11.32;;;;;;;11.37;74.84;99953.84;4956079;28;20059;-88
2020/12/16 10:36:57;;;;;;;16.95;11.20;;;;;;;11.41;75.00;99943.97;4955935;29;20059;-89
2020/12/16 10:39:23;;;;;;;18.77;11.25;;;;;;;11.42;74.89;99941.25;4957022;28;20058;-90
2020/12/16 10:41:57;;;;;;;15.70;11.02;;;;;;;11.46;74.88;99928.72;4955946;29;20062;-89
2020/12/16 10:44:24;;;;;;;16.70;10.65;;;;;;;11.49;75.01;99939.09;4956931;28;20051;-89
2020/12/16 10:46:54;;;;;;;20.67;12.10;;;;;;;11.53;75.00;99935.34;4957596;28;20066;-88
2020/12/16 10:49:24;;;;;;;16.65;10.20;;;;;;;11.57;75.31;99933.38;4955491;29;20048;-89
2020/12/16 10:51:51;;;;;;;15.65;10.38;;;;;;;11.63;75.25;99932.16;4956932;28;20063;-86
2020/12/16 10:54:18;;;;;;;16.58;9.95;;;;;;;11.69;75.24;99929.16;4955451;29;20063;-87
2020/12/16 10:56:49;;;;;;;18.80;11.43;;;;;;;11.74;74.88;99921.84;4955640;29;20055;-89
2020/12/16 10:59:16;;;;;;;20.10;11.52;;;;;;;11.78;74.45;99920.69;4955914;29;20051;-89
2020/12/16 11:01:42;;;;;;;17.65;11.85;;;;;;;11.83;74.25;99937.13;4954851;28;20436;-89
2020/12/16 11:04:08;;;;;;;20.55;12.30;;;;;;;11.85;74.22;99924.69;4955258;29;20139;-90
2020/12/16 11:06:35;;;;;;;17.77;11.32;;;;;;;11.89;74.10;99927.13;4955543;29;20091;-90
2020/12/16 11:09:03;;;;;;;17.38;10.77;;;;;;;11.91;74.06;99925.25;4955276;28;20051;-90
2020/12/16 11:11:29;;;;;;;19.15;11.70;;;;;;;11.94;74.14;99927.72;4955459;28;20071;-90
2020/12/16 11:13:55;;;;;;;19.17;11.45;;;;;;;11.97;74.10;99924.91;4955049;29;20494;-89
2020/12/16 11:16:31;;;;;;;16.60;10.43;;;;;;;11.97;73.55;99932.81;4955825;28;20051;-90
2020/12/16 11:18:58;;;;;;;15.80;9.68;;;;;;;12.02;74.19;99925.47;4954993;28;20429;-90
2020/12/16 11:21:26;;;;;;;17.15;10.23;;;;;;;12.05;74.16;99914.75;4955245;28;20058;-90
2020/12/16 11:23:53;;;;;;;17.10;9.52;;;;;;;12.10;74.03;99911.81;4955058;28;20395;-90
2020/12/16 11:26:19;;;;;;;13.48;9.45;;;;;;;12.15;74.30;99909.75;4955092;28;20059;-90
2020/12/16 11:29:03;;;;;;;16.23;10.00;;;;;;;12.22;74.29;99910.22;4955212;29;20518;-90